NC12 weather

Lee Creek Airport
Aurora, North Carolina, United States

Public forecast

Using degrees Fahrenheit for public forecast. Weather courtesy of forecast.io.

METAR (pilot weather report)

Closest report is Warren Field, 16.9 nm (31.3 km) NW. Retrieved 2019/04/22 19:40 UTC (18 minutes ago):

KOCW 221940Z AUTO 30007KT 10SM SCT065 23/06 A3009 RMK AO2 T02290063

TAF (pilot weather forecast)

Closest forecast is Coastal Carolina Regional Airport, 22.8 nm (42.3 km) SSW. Retrieved 2019/04/22 18:24 UTC (2 hours ago):

TAF KEWN 221723Z 2218/2318 31007KT P6SM FEW060 FM222300 VRB04KT P6SM FEW250